createdAt,value
2022-08-22T00:00:24.117Z,92775.50
2022-08-22T00:02:41.798Z,92815.97
2022-08-22T00:03:01.115Z,92816.47
2022-08-22T00:03:15.752Z,92782.88
2022-08-22T00:03:16.136Z,92767.38
2022-08-22T00:06:12.668Z,92779.03
2022-08-22T00:09:05.768Z,92771.63
2022-08-22T00:11:54.658Z,92773.59
2022-08-22T00:14:42.736Z,92776.13
2022-08-22T00:17:40.946Z,92777.50
2022-08-22T00:20:30.263Z,92773.47
2022-08-22T00:23:23.823Z,92768.66
2022-08-22T00:26:16.502Z,92769.78
2022-08-22T00:29:04.620Z,92767.19
2022-08-22T00:31:52.317Z,92769.78
2022-08-22T00:34:41.147Z,92760.84
2022-08-22T00:37:29.894Z,92764.78
2022-08-22T00:40:31.868Z,92759.59
2022-08-22T00:43:44.727Z,92759.72
2022-08-22T00:46:56.519Z,92770.31
2022-08-22T00:50:06.988Z,92763.38
2022-08-22T00:53:08.833Z,92769.53
2022-08-22T00:56:10.309Z,92771.50
2022-08-22T00:59:23.329Z,92764.09
2022-08-22T01:02:21.973Z,92771.50
2022-08-22T01:05:43.716Z,92768.28
2022-08-22T01:08:47.813Z,92760.88
2022-08-22T01:11:48.070Z,92775.00
2022-08-22T01:14:46.692Z,92769.03
2022-08-22T01:17:55.233Z,92769.22
2022-08-22T01:21:24.383Z,92766.00
2022-08-22T01:25:01.833Z,92771.34
2022-08-22T01:28:24.427Z,92768.13
2022-08-22T01:31:46.282Z,92778.06
2022-08-22T01:35:10.710Z,92781.00
2022-08-22T01:38:23.533Z,92777.78
2022-08-22T01:41:34.427Z,92780.56
2022-08-22T01:44:39.295Z,92778.34
2022-08-22T01:47:27.975Z,92788.88
2022-08-22T01:50:23.427Z,92784.88
2022-08-22T01:53:11.847Z,92783.47
2022-08-22T01:56:02.131Z,92781.84
2022-08-22T01:58:54.965Z,92781.38
2022-08-22T02:01:54.322Z,92786.13
2022-08-22T02:04:53.395Z,92782.69
2022-08-22T02:07:47.141Z,92781.44
2022-08-22T02:10:48.240Z,92781.97
2022-08-22T02:13:55.520Z,92783.84
2022-08-22T02:16:42.281Z,92787.50
2022-08-22T02:19:37.992Z,92781.44
2022-08-22T02:22:34.028Z,92784.31
2022-08-22T02:25:25.344Z,92779.47
2022-08-22T02:28:13.791Z,92779.03
2022-08-22T02:31:06.672Z,92782.97
2022-08-22T02:33:54.916Z,92779.94
2022-08-22T02:36:47.748Z,92780.28
2022-08-22T02:39:36.889Z,92783.41
2022-08-22T02:42:28.204Z,92778.72
2022-08-22T02:45:25.837Z,92779.28
2022-08-22T02:48:21.646Z,92774.44
2022-08-22T02:51:18.193Z,92777.56
2022-08-22T02:54:14.202Z,92777.75
2022-08-22T02:57:02.722Z,92772.75
2022-08-22T03:00:32.790Z,92768.72
2022-08-22T03:03:21.430Z,92770.34
2022-08-22T03:06:09.100Z,92768.72
2022-08-22T03:09:06.655Z,92765.16
2022-08-22T03:11:59.357Z,92760.63
2022-08-22T03:14:48.438Z,92766.25
2022-08-22T03:17:38.910Z,92756.34
2022-08-22T03:20:41.621Z,92760.81
2022-08-22T03:23:33.958Z,92760.91
2022-08-22T03:26:25.053Z,92757.97
2022-08-22T03:29:17.404Z,92762.81
2022-08-22T03:32:12.987Z,92765.03
2022-08-22T03:35:01.974Z,92766.25
2022-08-22T03:37:46.039Z,92760.75
2022-08-22T03:40:35.655Z,92761.38
2022-08-22T03:43:39.960Z,92756.81
2022-08-22T03:46:52.645Z,92764.59
2022-08-22T03:50:01.595Z,92765.72
2022-08-22T03:53:15.426Z,92769.47
2022-08-22T03:56:41.431Z,92771.00
2022-08-22T03:59:47.995Z,92772.53
2022-08-22T04:02:58.616Z,92772.59
2022-08-22T04:06:03.736Z,92773.13
2022-08-22T04:09:29.136Z,92775.06
2022-08-22T04:12:31.423Z,92767.50
2022-08-22T04:15:46.135Z,92766.53
2022-08-22T04:18:53.751Z,92771.06
2022-08-22T04:21:59.649Z,92766.25
2022-08-22T04:24:53.759Z,92777.56
2022-08-22T04:27:42.518Z,92773.22
2022-08-22T04:30:31.781Z,92775.41
2022-08-22T04:33:20.783Z,92777.94
2022-08-22T04:36:13.184Z,92777.41
2022-08-22T04:39:03.859Z,92788.38
2022-08-22T04:41:51.514Z,92788.56
2022-08-22T04:44:43.105Z,92794.34
2022-08-22T04:47:34.608Z,92786.25
2022-08-22T04:50:23.592Z,92789.31
2022-08-22T04:53:18.683Z,92790.38
2022-08-22T04:56:07.770Z,92791.34
2022-08-22T04:58:58.128Z,92786.44
2022-08-22T05:01:46.701Z,92792.84
2022-08-22T05:04:33.378Z,92792.16
2022-08-22T05:07:20.884Z,92798.22
2022-08-22T05:10:11.900Z,92792.06
2022-08-22T05:13:00.982Z,92794.91
2022-08-22T05:15:48.595Z,92796.97
2022-08-22T05:18:37.227Z,92791.63
2022-08-22T05:21:24.458Z,92794.03
2022-08-22T05:24:15.399Z,92797.88
2022-08-22T05:27:06.649Z,92801.50
2022-08-22T05:29:56.613Z,92801.25
2022-08-22T05:32:49.000Z,92810.69
2022-08-22T05:35:36.708Z,92809.97
2022-08-22T05:38:27.523Z,92813.28
2022-08-22T05:41:19.125Z,92807.53
2022-08-22T05:44:03.495Z,92803.56
2022-08-22T05:46:51.371Z,92806.66
2022-08-22T05:49:39.895Z,92814.66
2022-08-22T05:52:33.650Z,92821.09
2022-08-22T05:55:26.236Z,92821.72
2022-08-22T05:58:19.345Z,92816.53
2022-08-22T06:01:13.598Z,92822.53
2022-08-22T06:04:05.798Z,92818.16
2022-08-22T06:06:58.297Z,92825.13
2022-08-22T06:10:06.678Z,92808.75
2022-08-22T06:12:57.536Z,92814.00
2022-08-22T06:15:48.711Z,92816.25
2022-08-22T06:18:33.794Z,92816.31
2022-08-22T06:21:24.835Z,92821.56
2022-08-22T06:24:14.192Z,92823.59
2022-08-22T06:27:06.038Z,92824.84
2022-08-22T06:29:53.092Z,92834.84
2022-08-22T06:32:58.907Z,92831.06
2022-08-22T06:36:05.100Z,92830.69
2022-08-22T06:39:07.469Z,92827.81
2022-08-22T06:41:53.823Z,92833.31
2022-08-22T06:44:39.490Z,92827.19
2022-08-22T06:47:25.909Z,92823.81
2022-08-22T06:50:15.264Z,92833.66
2022-08-22T06:53:02.406Z,92826.28
2022-08-22T06:55:50.331Z,92818.91
2022-08-22T06:58:39.000Z,92819.53
2022-08-22T07:01:24.996Z,92818.19
2022-08-22T07:04:11.254Z,92820.94
2022-08-22T07:06:57.574Z,92823.38
2022-08-22T07:09:42.342Z,92822.38
2022-08-22T07:12:32.252Z,92815.22
2022-08-22T07:15:22.513Z,92819.22
2022-08-22T07:18:09.855Z,92818.22
2022-08-22T07:20:55.375Z,92823.81
2022-08-22T07:23:44.596Z,92817.50
2022-08-22T07:26:33.866Z,92823.28
2022-08-22T07:29:27.408Z,92819.31
2022-08-22T07:32:14.671Z,92817.00
2022-08-22T07:35:09.465Z,92815.44
2022-08-22T07:38:02.348Z,92821.66
2022-08-22T07:40:53.830Z,92824.69
2022-08-22T07:43:42.903Z,92814.72
2022-08-22T07:46:32.625Z,92820.69
2022-08-22T07:49:21.786Z,92820.16
2022-08-22T07:52:08.609Z,92819.59
2022-08-22T07:54:57.873Z,92824.22
2022-08-22T07:57:44.598Z,92832.50
2022-08-22T08:00:28.971Z,92829.56
2022-08-22T08:03:13.938Z,92826.16
2022-08-22T08:05:57.794Z,92827.63
2022-08-22T08:08:44.339Z,92827.84
2022-08-22T08:11:31.949Z,92815.66
2022-08-22T08:14:17.380Z,92820.59
2022-08-22T08:17:04.151Z,92821.91
2022-08-22T08:19:50.716Z,92821.91
2022-08-22T08:22:35.492Z,92819.31
2022-08-22T08:25:22.576Z,92825.34
2022-08-22T08:28:23.928Z,92824.78
2022-08-22T08:31:14.073Z,92822.75
2022-08-22T08:34:03.340Z,92827.59
2022-08-22T08:36:52.411Z,92823.94
2022-08-22T08:39:39.246Z,92819.97
2022-08-22T08:43:10.636Z,92822.91
2022-08-22T08:46:33.732Z,92822.91
2022-08-22T08:49:28.283Z,92826.91
2022-08-22T08:52:32.187Z,92819.66
2022-08-22T08:55:28.070Z,92823.72
2022-08-22T08:58:43.378Z,92819.69
2022-08-22T09:01:47.666Z,92824.72
2022-08-22T09:05:07.103Z,92821.69
2022-08-22T09:08:03.923Z,92826.34
2022-08-22T09:11:28.530Z,92821.97
2022-08-22T09:14:36.896Z,92827.25
2022-08-22T09:17:46.003Z,92826.66
2022-08-22T09:20:48.188Z,92833.25
2022-08-22T09:23:53.965Z,92836.47
2022-08-22T09:26:48.096Z,92836.09
2022-08-22T09:29:51.516Z,92844.91
2022-08-22T09:32:47.049Z,92845.91
2022-08-22T09:35:42.146Z,92843.13
2022-08-22T09:38:34.635Z,92845.53
2022-08-22T09:41:31.955Z,92844.94
2022-08-22T09:44:29.431Z,92844.34
2022-08-22T09:47:24.313Z,92839.13
2022-08-22T09:50:17.091Z,92844.13
2022-08-22T09:53:10.289Z,92849.53
2022-08-22T09:56:00.970Z,92856.31
2022-08-22T09:59:06.650Z,92850.72
2022-08-22T10:01:59.060Z,92851.72
2022-08-22T10:04:53.984Z,92858.31
2022-08-22T10:07:53.954Z,92858.53
2022-08-22T10:11:02.063Z,92861.53
2022-08-22T10:14:00.629Z,92868.34
2022-08-22T10:17:00.657Z,92857.72
2022-08-22T10:19:49.379Z,92860.91
2022-08-22T10:22:44.477Z,92869.28
2022-08-22T10:25:35.761Z,92869.06
2022-08-22T10:28:28.801Z,92865.91
2022-08-22T10:31:23.692Z,92868.31
2022-08-22T10:34:12.873Z,92868.28
2022-08-22T10:37:04.381Z,92867.88
2022-08-22T10:40:02.580Z,92866.84
2022-08-22T10:42:53.539Z,92863.72
2022-08-22T10:45:40.490Z,92860.50
2022-08-22T10:48:46.507Z,92860.50
2022-08-22T10:51:44.663Z,92862.34
2022-08-22T10:54:51.395Z,92856.13
2022-08-22T10:57:49.416Z,92853.53
2022-08-22T11:00:49.851Z,92855.94
2022-08-22T11:03:43.621Z,92852.94
2022-08-22T11:06:34.009Z,92837.91
2022-08-22T11:09:32.139Z,92845.53
2022-08-22T11:12:23.511Z,92838.94
2022-08-22T11:15:28.339Z,92835.91
2022-08-22T11:18:23.593Z,92844.16
2022-08-22T11:21:10.954Z,92835.53
2022-08-22T11:24:04.858Z,92846.53
2022-08-22T11:27:00.127Z,92838.34
2022-08-22T11:29:52.418Z,92838.31
2022-08-22T11:32:39.907Z,92833.09
2022-08-22T11:35:26.018Z,92834.72
2022-08-22T11:38:21.290Z,92838.91
2022-08-22T11:41:06.956Z,92847.03
2022-08-22T11:44:00.538Z,92836.63
2022-08-22T11:46:49.191Z,92843.44
2022-08-22T11:49:44.218Z,92841.22
2022-08-22T11:52:51.672Z,92843.34
2022-08-22T11:55:39.333Z,92856.94
2022-08-22T11:58:28.967Z,92854.13
2022-08-22T12:01:18.628Z,92852.66
2022-08-22T12:04:10.183Z,92854.47
2022-08-22T12:07:04.001Z,92856.47
2022-08-22T12:09:51.980Z,92853.31
2022-08-22T12:12:47.465Z,92853.72
2022-08-22T12:15:40.477Z,92863.13
2022-08-22T12:18:43.206Z,92859.28
2022-08-22T12:22:03.183Z,92854.47
2022-08-22T12:25:04.373Z,92857.47
2022-08-22T12:27:56.642Z,92852.06
2022-08-22T12:30:46.871Z,92854.28
2022-08-22T12:33:48.276Z,92849.47
2022-08-22T12:37:05.853Z,92854.41
2022-08-22T12:40:09.794Z,92843.22
2022-08-22T12:43:13.269Z,92842.75
2022-08-22T12:46:15.096Z,92844.72
2022-08-22T12:49:23.251Z,92843.34
2022-08-22T12:52:25.100Z,92845.56
2022-08-22T12:55:25.566Z,92845.19
2022-08-22T12:58:17.732Z,92844.72
2022-08-22T13:01:06.310Z,92846.50
2022-08-22T13:03:54.681Z,92841.28
2022-08-22T13:06:57.698Z,92850.09
2022-08-22T13:09:47.616Z,92847.25
2022-08-22T13:12:37.710Z,92849.06
2022-08-22T13:15:31.181Z,92845.03
2022-08-22T13:18:30.560Z,92837.25
2022-08-22T13:21:17.759Z,92837.81
2022-08-22T13:24:10.489Z,92845.53
2022-08-22T13:27:01.093Z,92840.13
2022-08-22T13:29:54.722Z,92841.78
2022-08-22T13:32:44.246Z,92840.28
2022-08-22T13:35:35.312Z,92828.34
2022-08-22T13:38:26.127Z,92831.34
2022-08-22T13:41:11.647Z,92834.16
2022-08-22T13:44:11.635Z,92827.16
2022-08-22T13:47:13.651Z,92822.16
2022-08-22T13:50:07.269Z,92829.78
2022-08-22T13:52:56.864Z,92825.84
2022-08-22T13:55:49.152Z,92825.91
2022-08-22T13:58:42.242Z,92819.19
2022-08-22T14:01:38.791Z,92822.81
2022-08-22T14:04:33.349Z,92822.84
2022-08-22T14:07:28.232Z,92816.28
2022-08-22T14:10:19.726Z,92826.13
2022-08-22T14:13:39.728Z,92819.94
2022-08-22T14:16:27.265Z,92816.84
2022-08-22T14:19:23.289Z,92820.06
2022-08-22T14:22:14.719Z,92822.47
2022-08-22T14:25:01.524Z,92826.00
2022-08-22T14:27:57.988Z,92821.97
2022-08-22T14:31:01.911Z,92819.00
2022-08-22T14:33:49.871Z,92816.41
2022-08-22T14:36:41.281Z,92816.19
2022-08-22T14:39:34.895Z,92815.66
2022-08-22T14:42:22.930Z,92819.88
2022-08-22T14:45:11.830Z,92819.50
2022-08-22T14:48:29.711Z,92823.28
2022-08-22T14:51:10.054Z,92823.09
2022-08-22T14:53:53.986Z,92817.03
2022-08-22T14:56:38.918Z,92817.81
2022-08-22T14:59:33.715Z,92826.44
2022-08-22T15:02:26.603Z,92816.00
2022-08-22T15:05:19.785Z,92818.22
2022-08-22T15:08:02.936Z,92815.03
2022-08-22T15:10:49.020Z,92821.59
2022-08-22T15:13:32.207Z,92823.75
2022-08-22T15:16:20.044Z,92821.53
2022-08-22T15:19:22.922Z,92826.53
2022-08-22T15:22:15.739Z,92820.34
2022-08-22T15:25:04.183Z,92816.53
2022-08-22T15:27:53.838Z,92826.75
2022-08-22T15:30:44.082Z,92814.41
2022-08-22T15:33:32.251Z,92818.56
2022-08-22T15:36:17.468Z,92818.97
2022-08-22T15:39:30.312Z,92815.00
2022-08-22T15:42:26.950Z,92814.00
2022-08-22T15:45:21.109Z,92815.75
2022-08-22T15:48:10.071Z,92817.31
2022-08-22T15:51:00.114Z,92813.25
2022-08-22T15:54:00.804Z,92815.47
2022-08-22T15:57:16.343Z,92813.25
2022-08-22T16:00:03.127Z,92806.66
2022-08-22T16:03:01.529Z,92808.84
2022-08-22T16:05:55.238Z,92813.22
2022-08-22T16:08:50.382Z,92812.59
2022-08-22T16:11:37.860Z,92814.00
2022-08-22T16:14:25.662Z,92812.81
2022-08-22T16:17:41.883Z,92814.03
2022-08-22T16:20:51.858Z,92813.22
2022-08-22T16:24:17.581Z,92813.63
2022-08-22T16:27:18.885Z,92820.59
2022-08-22T16:30:16.639Z,92821.22
2022-08-22T16:33:00.666Z,92820.25
2022-08-22T16:36:05.155Z,92825.06
2022-08-22T16:38:51.569Z,92825.53
2022-08-22T16:41:40.290Z,92824.31
2022-08-22T16:44:51.219Z,92824.16
2022-08-22T16:47:43.054Z,92822.16
2022-08-22T16:50:40.874Z,92824.16
2022-08-22T16:54:01.549Z,92827.72
2022-08-22T16:57:09.145Z,92828.50
2022-08-22T17:00:07.485Z,92831.66
2022-08-22T17:03:08.751Z,92833.44
2022-08-22T17:06:04.719Z,92829.19
2022-08-22T17:08:56.596Z,92829.13
2022-08-22T17:11:52.968Z,92828.91
2022-08-22T17:14:47.423Z,92826.44
2022-08-22T17:17:37.675Z,92826.75
2022-08-22T17:20:33.874Z,92832.34
2022-08-22T17:23:28.769Z,92826.53
2022-08-22T17:26:21.548Z,92827.69
2022-08-22T17:29:24.907Z,92831.84
2022-08-22T17:32:18.575Z,92832.47
2022-08-22T17:35:14.663Z,92830.66
2022-08-22T17:38:21.121Z,92831.06
2022-08-22T17:41:13.236Z,92824.63
2022-08-22T17:44:08.818Z,92823.59
2022-08-22T17:46:56.327Z,92828.94
2022-08-22T17:49:52.307Z,92834.34
2022-08-22T17:52:42.630Z,92840.94
2022-08-22T17:55:32.580Z,92850.31
2022-08-22T17:58:33.605Z,92848.56
2022-08-22T18:01:40.895Z,92837.31
2022-08-22T18:04:32.136Z,92847.81
2022-08-22T18:07:50.261Z,92849.78
2022-08-22T18:10:43.183Z,92851.75
2022-08-22T18:13:37.999Z,92855.16
2022-08-22T18:16:27.106Z,92858.38
2022-08-22T18:19:20.348Z,92858.19
2022-08-22T18:22:09.502Z,92859.59
2022-08-22T18:25:00.840Z,92865.41
2022-08-22T18:27:54.727Z,92861.00
2022-08-22T18:30:51.871Z,92871.22
2022-08-22T18:33:41.079Z,92863.44
2022-08-22T18:36:31.322Z,92867.03
2022-08-22T18:39:22.574Z,92866.19
2022-08-22T18:42:11.592Z,92872.94
2022-08-22T18:44:56.407Z,92873.31
2022-08-22T18:47:39.266Z,92876.09
2022-08-22T18:50:32.698Z,92869.09
2022-08-22T18:53:38.010Z,92881.91
2022-08-22T18:56:50.236Z,92874.91
2022-08-22T18:59:46.004Z,92875.91
2022-08-22T19:02:57.731Z,92877.34
2022-08-22T19:06:09.558Z,92879.94
2022-08-22T19:09:16.120Z,92883.81
2022-08-22T19:12:06.582Z,92880.34
2022-08-22T19:15:07.357Z,92884.09
2022-08-22T19:18:23.907Z,92895.03
2022-08-22T19:21:40.264Z,92889.22
2022-08-22T19:25:03.276Z,92899.75
2022-08-22T19:28:08.661Z,92890.75
2022-08-22T19:30:52.814Z,92883.78
2022-08-22T19:33:42.239Z,92889.78
2022-08-22T19:36:31.882Z,92882.78
2022-08-22T19:39:44.744Z,92886.56
2022-08-22T19:42:37.572Z,92889.31
2022-08-22T19:45:25.757Z,92885.13
2022-08-22T19:48:14.529Z,92888.91
2022-08-22T19:51:12.771Z,92891.84
2022-08-22T19:54:16.435Z,92888.47
2022-08-22T19:57:10.936Z,92890.22
2022-08-22T20:00:03.181Z,92898.19
2022-08-22T20:03:01.971Z,92893.03
2022-08-22T20:05:57.058Z,92895.59
2022-08-22T20:08:51.337Z,92901.16
2022-08-22T20:11:45.415Z,92901.34
2022-08-22T20:14:31.142Z,92895.53
2022-08-22T20:17:35.753Z,92905.09
2022-08-22T20:20:56.876Z,92899.09
2022-08-22T20:23:40.196Z,92890.97
2022-08-22T20:26:25.270Z,92888.81
2022-08-22T20:29:08.436Z,92879.06
2022-08-22T20:31:56.768Z,92882.47
2022-08-22T20:34:43.298Z,92884.06
2022-08-22T20:38:02.822Z,92880.31
2022-08-22T20:40:56.959Z,92881.94
2022-08-22T20:43:48.008Z,92882.53
2022-08-22T20:46:44.871Z,92881.75
2022-08-22T20:49:32.522Z,92886.94
2022-08-22T20:52:27.301Z,92882.16
2022-08-22T20:55:17.496Z,92884.75
2022-08-22T20:58:03.530Z,92874.38
2022-08-22T21:00:52.330Z,92871.00
2022-08-22T21:03:41.284Z,92872.00
2022-08-22T21:06:32.394Z,92871.56
2022-08-22T21:09:38.853Z,92872.09
2022-08-22T21:12:22.312Z,92868.72
2022-08-22T21:15:06.203Z,92867.88
2022-08-22T21:17:51.647Z,92863.53
2022-08-22T21:20:37.628Z,92864.50
2022-08-22T21:23:21.249Z,92861.47
2022-08-22T21:26:08.043Z,92867.28
2022-08-22T21:29:00.441Z,92871.66
2022-08-22T21:31:47.755Z,92872.63
2022-08-22T21:34:35.691Z,92869.44
2022-08-22T21:37:26.185Z,92873.25
2022-08-22T21:40:16.980Z,92866.03
2022-08-22T21:43:03.823Z,92866.84
2022-08-22T21:45:47.101Z,92863.63
2022-08-22T21:48:43.820Z,92857.09
2022-08-22T21:51:43.867Z,92852.53
2022-08-22T21:54:40.695Z,92848.97
2022-08-22T21:57:35.977Z,92856.72
2022-08-22T22:00:41.859Z,92858.34
2022-08-22T22:03:37.264Z,92855.56
2022-08-22T22:06:20.454Z,92860.50
2022-08-22T22:09:05.096Z,92853.16
2022-08-22T22:11:48.221Z,92855.13
2022-08-22T22:14:31.302Z,92857.09
2022-08-22T22:17:14.399Z,92857.09
2022-08-22T22:19:57.366Z,92859.69
2022-08-22T22:22:46.007Z,92857.09
2022-08-22T22:25:38.937Z,92860.66
2022-08-22T22:28:29.319Z,92855.06
2022-08-22T22:31:12.335Z,92852.56
2022-08-22T22:33:55.496Z,92849.72
2022-08-22T22:36:38.779Z,92842.44
2022-08-22T22:39:21.873Z,92847.03
2022-08-22T22:42:07.184Z,92839.78
2022-08-22T22:44:50.064Z,92834.34
2022-08-22T22:47:34.830Z,92834.72
2022-08-22T22:50:17.745Z,92828.47
2022-08-22T22:53:00.815Z,92824.28
2022-08-22T22:55:43.904Z,92826.03
2022-08-22T22:58:28.690Z,92823.44
2022-08-22T23:01:12.331Z,92819.25
2022-08-22T23:03:57.446Z,92821.75
2022-08-22T23:06:40.521Z,92816.78
2022-08-22T23:09:37.944Z,92814.97
2022-08-22T23:12:22.532Z,92816.94
2022-08-22T23:15:08.070Z,92815.44
2022-08-22T23:17:51.186Z,92812.66
2022-08-22T23:20:34.271Z,92816.66
2022-08-22T23:23:17.336Z,92817.75
2022-08-22T23:26:00.572Z,92815.94
2022-08-22T23:28:43.895Z,92814.63
2022-08-22T23:31:31.982Z,92818.44
2022-08-22T23:34:17.157Z,92817.09
2022-08-22T23:37:02.394Z,92822.53
2022-08-22T23:39:50.161Z,92824.59
2022-08-22T23:42:33.315Z,92827.63
2022-08-22T23:45:16.403Z,92829.06
2022-08-22T23:48:01.010Z,92826.91
2022-08-22T23:50:44.080Z,92824.94
2022-08-22T23:53:28.583Z,92822.16
2022-08-22T23:56:19.442Z,92817.78
2022-08-22T23:59:05.926Z,92824.94
